sensor_id;sensor_type;location;lat;lon;timestamp;P1;durP1;ratioP1;P2;durP2;ratioP2
41263;SDS011;26998;48.714;9.414;2024-01-30T00:00:06;27.80;;;17.77;;
41263;SDS011;26998;48.714;9.414;2024-01-30T00:02:34;24.75;;;17.00;;
41263;SDS011;26998;48.714;9.414;2024-01-30T00:05:01;26.73;;;17.80;;
41263;SDS011;26998;48.714;9.414;2024-01-30T00:07:30;25.23;;;17.52;;
41263;SDS011;26998;48.714;9.414;2024-01-30T00:09:57;27.38;;;17.92;;
41263;SDS011;26998;48.714;9.414;2024-01-30T00:12:23;27.30;;;18.05;;
41263;SDS011;26998;48.714;9.414;2024-01-30T00:14:50;22.13;;;16.65;;
41263;SDS011;26998;48.714;9.414;2024-01-30T00:17:20;28.23;;;19.27;;
41263;SDS011;26998;48.714;9.414;2024-01-30T00:19:47;26.37;;;18.60;;
41263;SDS011;26998;48.714;9.414;2024-01-30T00:22:14;23.87;;;17.97;;
41263;SDS011;26998;48.714;9.414;2024-01-30T00:24:41;26.67;;;20.85;;
41263;SDS011;26998;48.714;9.414;2024-01-30T00:27:15;26.60;;;19.38;;
41263;SDS011;26998;48.714;9.414;2024-01-30T00:29:42;23.77;;;18.65;;
41263;SDS011;26998;48.714;9.414;2024-01-30T00:32:09;27.98;;;18.90;;
41263;SDS011;26998;48.714;9.414;2024-01-30T00:34:35;22.70;;;17.23;;
41263;SDS011;26998;48.714;9.414;2024-01-30T00:37:02;20.77;;;16.58;;
41263;SDS011;26998;48.714;9.414;2024-01-30T00:39:29;23.17;;;18.05;;
41263;SDS011;26998;48.714;9.414;2024-01-30T00:41:55;23.80;;;17.35;;
41263;SDS011;26998;48.714;9.414;2024-01-30T00:44:22;23.30;;;16.65;;
41263;SDS011;26998;48.714;9.414;2024-01-30T00:46:49;21.83;;;17.83;;
41263;SDS011;26998;48.714;9.414;2024-01-30T00:49:15;23.40;;;18.15;;
41263;SDS011;26998;48.714;9.414;2024-01-30T00:51:47;31.60;;;21.55;;
41263;SDS011;26998;48.714;9.414;2024-01-30T00:54:14;24.40;;;18.42;;
41263;SDS011;26998;48.714;9.414;2024-01-30T00:56:42;29.52;;;23.40;;
41263;SDS011;26998;48.714;9.414;2024-01-30T00:59:09;31.83;;;25.85;;
41263;SDS011;26998;48.714;9.414;2024-01-30T01:01:36;30.08;;;22.73;;
41263;SDS011;26998;48.714;9.414;2024-01-30T01:04:03;22.13;;;17.58;;
41263;SDS011;26998;48.714;9.414;2024-01-30T01:06:32;21.30;;;16.52;;
41263;SDS011;26998;48.714;9.414;2024-01-30T01:08:59;18.60;;;14.83;;
41263;SDS011;26998;48.714;9.414;2024-01-30T01:11:29;18.15;;;13.10;;
41263;SDS011;26998;48.714;9.414;2024-01-30T01:13:56;21.30;;;14.17;;
41263;SDS011;26998;48.714;9.414;2024-01-30T01:16:24;18.63;;;14.57;;
41263;SDS011;26998;48.714;9.414;2024-01-30T01:18:51;18.17;;;14.75;;
41263;SDS011;26998;48.714;9.414;2024-01-30T01:21:17;22.10;;;17.03;;
41263;SDS011;26998;48.714;9.414;2024-01-30T01:23:44;23.92;;;17.33;;
41263;SDS011;26998;48.714;9.414;2024-01-30T01:26:11;20.20;;;15.63;;
41263;SDS011;26998;48.714;9.414;2024-01-30T01:28:41;19.15;;;14.80;;
41263;SDS011;26998;48.714;9.414;2024-01-30T01:31:09;22.02;;;14.93;;
41263;SDS011;26998;48.714;9.414;2024-01-30T01:33:35;20.77;;;14.88;;
41263;SDS011;26998;48.714;9.414;2024-01-30T01:36:04;19.17;;;14.88;;
41263;SDS011;26998;48.714;9.414;2024-01-30T01:38:31;17.77;;;13.38;;
41263;SDS011;26998;48.714;9.414;2024-01-30T01:40:58;18.58;;;13.63;;
41263;SDS011;26998;48.714;9.414;2024-01-30T01:43:26;15.77;;;12.70;;
41263;SDS011;26998;48.714;9.414;2024-01-30T01:45:53;17.88;;;13.68;;
41263;SDS011;26998;48.714;9.414;2024-01-30T01:48:19;18.27;;;13.63;;
41263;SDS011;26998;48.714;9.414;2024-01-30T01:50:47;20.25;;;15.18;;
41263;SDS011;26998;48.714;9.414;2024-01-30T01:53:14;17.65;;;13.93;;
41263;SDS011;26998;48.714;9.414;2024-01-30T01:55:42;18.87;;;14.40;;
41263;SDS011;26998;48.714;9.414;2024-01-30T01:58:10;19.03;;;13.87;;
41263;SDS011;26998;48.714;9.414;2024-01-30T02:00:39;17.08;;;12.93;;
41263;SDS011;26998;48.714;9.414;2024-01-30T02:03:09;16.47;;;12.27;;
41263;SDS011;26998;48.714;9.414;2024-01-30T02:05:38;19.73;;;13.13;;
41263;SDS011;26998;48.714;9.414;2024-01-30T02:08:06;16.85;;;11.82;;
41263;SDS011;26998;48.714;9.414;2024-01-30T02:10:33;18.48;;;12.75;;
41263;SDS011;26998;48.714;9.414;2024-01-30T02:13:00;18.75;;;12.88;;
41263;SDS011;26998;48.714;9.414;2024-01-30T02:15:27;18.63;;;12.57;;
41263;SDS011;26998;48.714;9.414;2024-01-30T02:17:55;16.15;;;11.25;;
41263;SDS011;26998;48.714;9.414;2024-01-30T02:20:23;17.33;;;12.35;;
41263;SDS011;26998;48.714;9.414;2024-01-30T02:22:52;17.92;;;12.27;;
41263;SDS011;26998;48.714;9.414;2024-01-30T02:25:20;14.40;;;10.95;;
41263;SDS011;26998;48.714;9.414;2024-01-30T02:27:56;17.17;;;12.30;;
41263;SDS011;26998;48.714;9.414;2024-01-30T02:30:23;16.02;;;11.63;;
41263;SDS011;26998;48.714;9.414;2024-01-30T02:32:51;17.83;;;12.43;;
41263;SDS011;26998;48.714;9.414;2024-01-30T02:35:18;19.10;;;12.60;;
41263;SDS011;26998;48.714;9.414;2024-01-30T02:37:45;18.38;;;12.10;;
41263;SDS011;26998;48.714;9.414;2024-01-30T02:40:11;19.63;;;12.68;;
41263;SDS011;26998;48.714;9.414;2024-01-30T02:42:39;14.70;;;11.43;;
41263;SDS011;26998;48.714;9.414;2024-01-30T02:45:05;15.97;;;11.70;;
41263;SDS011;26998;48.714;9.414;2024-01-30T02:47:32;18.10;;;12.63;;
41263;SDS011;26998;48.714;9.414;2024-01-30T02:49:59;19.42;;;12.05;;
41263;SDS011;26998;48.714;9.414;2024-01-30T02:52:26;15.30;;;11.98;;
41263;SDS011;26998;48.714;9.414;2024-01-30T02:54:53;17.50;;;12.35;;
41263;SDS011;26998;48.714;9.414;2024-01-30T02:57:19;18.90;;;13.05;;
41263;SDS011;26998;48.714;9.414;2024-01-30T02:59:47;18.15;;;12.35;;
41263;SDS011;26998;48.714;9.414;2024-01-30T03:02:14;20.67;;;12.85;;
41263;SDS011;26998;48.714;9.414;2024-01-30T03:04:41;17.70;;;12.40;;
41263;SDS011;26998;48.714;9.414;2024-01-30T03:07:08;18.95;;;13.23;;
41263;SDS011;26998;48.714;9.414;2024-01-30T03:09:36;17.10;;;11.75;;
41263;SDS011;26998;48.714;9.414;2024-01-30T03:12:03;19.08;;;12.57;;
41263;SDS011;26998;48.714;9.414;2024-01-30T03:14:34;16.92;;;12.55;;
41263;SDS011;26998;48.714;9.414;2024-01-30T03:17:01;17.55;;;13.52;;
41263;SDS011;26998;48.714;9.414;2024-01-30T03:19:27;21.20;;;14.60;;
41263;SDS011;26998;48.714;9.414;2024-01-30T03:21:54;18.88;;;13.07;;
41263;SDS011;26998;48.714;9.414;2024-01-30T03:24:21;22.17;;;15.52;;
41263;SDS011;26998;48.714;9.414;2024-01-30T03:26:48;23.48;;;16.60;;
41263;SDS011;26998;48.714;9.414;2024-01-30T03:29:15;20.27;;;13.43;;
41263;SDS011;26998;48.714;9.414;2024-01-30T03:31:42;18.60;;;13.07;;
41263;SDS011;26998;48.714;9.414;2024-01-30T03:34:08;18.52;;;12.60;;
41263;SDS011;26998;48.714;9.414;2024-01-30T03:36:36;17.50;;;12.60;;
41263;SDS011;26998;48.714;9.414;2024-01-30T03:39:05;17.15;;;12.45;;
41263;SDS011;26998;48.714;9.414;2024-01-30T03:41:32;15.70;;;12.52;;
41263;SDS011;26998;48.714;9.414;2024-01-30T03:43:59;16.27;;;11.88;;
41263;SDS011;26998;48.714;9.414;2024-01-30T03:46:26;19.40;;;13.00;;
41263;SDS011;26998;48.714;9.414;2024-01-30T03:48:52;16.80;;;12.70;;
41263;SDS011;26998;48.714;9.414;2024-01-30T03:51:19;19.17;;;12.55;;
41263;SDS011;26998;48.714;9.414;2024-01-30T03:53:46;18.65;;;13.18;;
41263;SDS011;26998;48.714;9.414;2024-01-30T03:56:13;21.00;;;13.55;;
41263;SDS011;26998;48.714;9.414;2024-01-30T03:58:40;17.77;;;12.88;;
41263;SDS011;26998;48.714;9.414;2024-01-30T04:01:07;16.08;;;11.57;;
41263;SDS011;26998;48.714;9.414;2024-01-30T04:03:34;17.92;;;13.20;;
41263;SDS011;26998;48.714;9.414;2024-01-30T04:06:01;16.02;;;12.30;;
41263;SDS011;26998;48.714;9.414;2024-01-30T04:08:28;17.88;;;13.20;;
41263;SDS011;26998;48.714;9.414;2024-01-30T04:10:55;17.47;;;12.63;;
41263;SDS011;26998;48.714;9.414;2024-01-30T04:13:21;18.98;;;13.52;;
41263;SDS011;26998;48.714;9.414;2024-01-30T04:15:48;21.65;;;12.77;;
41263;SDS011;26998;48.714;9.414;2024-01-30T04:18:15;15.98;;;12.98;;
41263;SDS011;26998;48.714;9.414;2024-01-30T04:20:42;18.23;;;12.98;;
41263;SDS011;26998;48.714;9.414;2024-01-30T04:23:09;18.23;;;13.27;;
41263;SDS011;26998;48.714;9.414;2024-01-30T04:25:35;17.15;;;12.95;;
41263;SDS011;26998;48.714;9.414;2024-01-30T04:28:02;18.00;;;12.90;;
41263;SDS011;26998;48.714;9.414;2024-01-30T04:30:29;16.05;;;12.57;;
41263;SDS011;26998;48.714;9.414;2024-01-30T04:32:56;16.70;;;12.25;;
41263;SDS011;26998;48.714;9.414;2024-01-30T04:35:23;17.35;;;12.93;;
41263;SDS011;26998;48.714;9.414;2024-01-30T04:37:52;18.52;;;12.88;;
41263;SDS011;26998;48.714;9.414;2024-01-30T04:40:20;16.60;;;12.98;;
41263;SDS011;26998;48.714;9.414;2024-01-30T04:42:47;17.25;;;12.15;;
41263;SDS011;26998;48.714;9.414;2024-01-30T04:45:14;19.42;;;13.60;;
41263;SDS011;26998;48.714;9.414;2024-01-30T04:47:40;17.35;;;12.73;;
41263;SDS011;26998;48.714;9.414;2024-01-30T04:50:08;17.67;;;12.32;;
41263;SDS011;26998;48.714;9.414;2024-01-30T04:52:35;15.98;;;12.85;;
41263;SDS011;26998;48.714;9.414;2024-01-30T04:55:03;17.98;;;11.65;;
41263;SDS011;26998;48.714;9.414;2024-01-30T04:57:30;17.85;;;13.98;;
41263;SDS011;26998;48.714;9.414;2024-01-30T05:00:00;19.65;;;14.68;;
41263;SDS011;26998;48.714;9.414;2024-01-30T05:02:27;20.50;;;15.52;;
41263;SDS011;26998;48.714;9.414;2024-01-30T05:04:54;18.25;;;14.55;;
41263;SDS011;26998;48.714;9.414;2024-01-30T05:07:21;19.63;;;15.15;;
41263;SDS011;26998;48.714;9.414;2024-01-30T05:09:48;17.23;;;13.43;;
41263;SDS011;26998;48.714;9.414;2024-01-30T05:12:15;15.57;;;12.70;;
41263;SDS011;26998;48.714;9.414;2024-01-30T05:14:42;16.67;;;13.13;;
41263;SDS011;26998;48.714;9.414;2024-01-30T05:17:09;16.15;;;12.90;;
41263;SDS011;26998;48.714;9.414;2024-01-30T05:19:40;19.77;;;13.93;;
41263;SDS011;26998;48.714;9.414;2024-01-30T05:22:07;19.88;;;14.35;;
41263;SDS011;26998;48.714;9.414;2024-01-30T05:24:35;18.48;;;13.55;;
41263;SDS011;26998;48.714;9.414;2024-01-30T05:27:03;19.03;;;13.40;;
41263;SDS011;26998;48.714;9.414;2024-01-30T05:29:31;16.95;;;13.23;;
41263;SDS011;26998;48.714;9.414;2024-01-30T05:31:58;20.33;;;14.07;;
41263;SDS011;26998;48.714;9.414;2024-01-30T05:34:25;19.05;;;14.15;;
41263;SDS011;26998;48.714;9.414;2024-01-30T05:36:52;16.47;;;12.80;;
41263;SDS011;26998;48.714;9.414;2024-01-30T05:39:22;18.60;;;13.00;;
41263;SDS011;26998;48.714;9.414;2024-01-30T05:41:49;18.30;;;13.65;;
41263;SDS011;26998;48.714;9.414;2024-01-30T05:44:16;21.15;;;14.30;;
41263;SDS011;26998;48.714;9.414;2024-01-30T05:46:43;24.57;;;15.70;;
41263;SDS011;26998;48.714;9.414;2024-01-30T05:49:10;20.08;;;14.93;;
41263;SDS011;26998;48.714;9.414;2024-01-30T05:51:37;20.10;;;14.88;;
41263;SDS011;26998;48.714;9.414;2024-01-30T05:54:03;21.75;;;14.07;;
41263;SDS011;26998;48.714;9.414;2024-01-30T05:56:32;20.02;;;13.85;;
41263;SDS011;26998;48.714;9.414;2024-01-30T05:58:59;20.40;;;13.90;;
41263;SDS011;26998;48.714;9.414;2024-01-30T06:01:26;20.40;;;13.85;;
41263;SDS011;26998;48.714;9.414;2024-01-30T06:03:52;21.80;;;14.57;;
41263;SDS011;26998;48.714;9.414;2024-01-30T06:06:19;18.65;;;13.75;;
41263;SDS011;26998;48.714;9.414;2024-01-30T06:08:46;20.53;;;14.10;;
41263;SDS011;26998;48.714;9.414;2024-01-30T06:11:15;18.63;;;14.00;;
41263;SDS011;26998;48.714;9.414;2024-01-30T06:13:42;19.83;;;14.13;;
41263;SDS011;26998;48.714;9.414;2024-01-30T06:16:09;20.67;;;14.02;;
41263;SDS011;26998;48.714;9.414;2024-01-30T06:18:38;17.83;;;13.98;;
41263;SDS011;26998;48.714;9.414;2024-01-30T06:21:05;19.80;;;14.15;;
41263;SDS011;26998;48.714;9.414;2024-01-30T06:23:35;19.80;;;14.30;;
41263;SDS011;26998;48.714;9.414;2024-01-30T06:26:03;18.90;;;13.20;;
41263;SDS011;26998;48.714;9.414;2024-01-30T06:28:31;17.10;;;12.75;;
41263;SDS011;26998;48.714;9.414;2024-01-30T06:31:00;20.63;;;13.88;;
41263;SDS011;26998;48.714;9.414;2024-01-30T06:33:28;19.55;;;14.43;;
41263;SDS011;26998;48.714;9.414;2024-01-30T06:35:55;20.48;;;14.05;;
41263;SDS011;26998;48.714;9.414;2024-01-30T06:38:21;20.38;;;15.23;;
41263;SDS011;26998;48.714;9.414;2024-01-30T06:40:48;20.45;;;14.18;;
41263;SDS011;26998;48.714;9.414;2024-01-30T06:43:15;18.77;;;14.63;;
41263;SDS011;26998;48.714;9.414;2024-01-30T06:45:42;19.65;;;14.07;;
41263;SDS011;26998;48.714;9.414;2024-01-30T06:48:09;20.70;;;14.68;;
41263;SDS011;26998;48.714;9.414;2024-01-30T06:50:36;21.05;;;14.93;;
41263;SDS011;26998;48.714;9.414;2024-01-30T06:53:02;21.58;;;14.95;;
41263;SDS011;26998;48.714;9.414;2024-01-30T06:55:29;22.33;;;15.40;;
41263;SDS011;26998;48.714;9.414;2024-01-30T06:57:56;23.42;;;15.98;;
41263;SDS011;26998;48.714;9.414;2024-01-30T07:00:23;22.60;;;15.35;;
41263;SDS011;26998;48.714;9.414;2024-01-30T07:02:50;21.83;;;15.23;;
41263;SDS011;26998;48.714;9.414;2024-01-30T07:05:17;20.77;;;15.17;;
41263;SDS011;26998;48.714;9.414;2024-01-30T07:07:44;21.40;;;15.32;;
41263;SDS011;26998;48.714;9.414;2024-01-30T07:10:11;22.35;;;15.68;;
41263;SDS011;26998;48.714;9.414;2024-01-30T07:12:42;22.98;;;16.10;;
41263;SDS011;26998;48.714;9.414;2024-01-30T07:15:09;23.55;;;16.50;;
41263;SDS011;26998;48.714;9.414;2024-01-30T07:17:36;21.65;;;16.48;;
41263;SDS011;26998;48.714;9.414;2024-01-30T07:20:04;23.23;;;16.77;;
41263;SDS011;26998;48.714;9.414;2024-01-30T07:22:33;24.92;;;17.73;;
41263;SDS011;26998;48.714;9.414;2024-01-30T07:25:01;24.40;;;17.33;;
41263;SDS011;26998;48.714;9.414;2024-01-30T07:27:29;26.20;;;17.83;;
41263;SDS011;26998;48.714;9.414;2024-01-30T07:29:57;23.73;;;17.65;;
41263;SDS011;26998;48.714;9.414;2024-01-30T07:32:25;26.60;;;18.58;;
41263;SDS011;26998;48.714;9.414;2024-01-30T07:34:53;22.07;;;17.37;;
41263;SDS011;26998;48.714;9.414;2024-01-30T07:37:33;21.10;;;16.05;;
41263;SDS011;26998;48.714;9.414;2024-01-30T07:40:00;25.52;;;17.70;;
41263;SDS011;26998;48.714;9.414;2024-01-30T07:42:28;31.10;;;20.80;;
41263;SDS011;26998;48.714;9.414;2024-01-30T07:44:55;29.30;;;19.88;;
41263;SDS011;26998;48.714;9.414;2024-01-30T07:47:23;26.20;;;18.73;;
41263;SDS011;26998;48.714;9.414;2024-01-30T07:49:51;22.58;;;17.70;;
41263;SDS011;26998;48.714;9.414;2024-01-30T07:52:19;22.75;;;18.50;;
41263;SDS011;26998;48.714;9.414;2024-01-30T07:54:46;23.42;;;18.00;;
41263;SDS011;26998;48.714;9.414;2024-01-30T07:57:12;21.17;;;17.27;;
41263;SDS011;26998;48.714;9.414;2024-01-30T07:59:41;26.90;;;19.10;;
41263;SDS011;26998;48.714;9.414;2024-01-30T08:02:14;28.53;;;20.77;;
41263;SDS011;26998;48.714;9.414;2024-01-30T08:04:41;27.65;;;21.33;;
41263;SDS011;26998;48.714;9.414;2024-01-30T08:07:08;32.87;;;22.00;;
41263;SDS011;26998;48.714;9.414;2024-01-30T08:09:35;34.77;;;22.87;;
41263;SDS011;26998;48.714;9.414;2024-01-30T08:12:05;31.70;;;21.87;;
41263;SDS011;26998;48.714;9.414;2024-01-30T08:14:32;32.00;;;22.83;;
41263;SDS011;26998;48.714;9.414;2024-01-30T08:16:59;31.75;;;22.20;;
41263;SDS011;26998;48.714;9.414;2024-01-30T08:19:25;31.92;;;22.77;;
41263;SDS011;26998;48.714;9.414;2024-01-30T08:21:52;30.73;;;21.52;;
41263;SDS011;26998;48.714;9.414;2024-01-30T08:24:20;31.13;;;21.17;;
41263;SDS011;26998;48.714;9.414;2024-01-30T08:26:49;29.55;;;20.75;;
41263;SDS011;26998;48.714;9.414;2024-01-30T08:29:16;28.83;;;21.70;;
41263;SDS011;26998;48.714;9.414;2024-01-30T08:31:52;26.15;;;20.65;;
41263;SDS011;26998;48.714;9.414;2024-01-30T08:34:19;28.15;;;19.77;;
41263;SDS011;26998;48.714;9.414;2024-01-30T08:36:50;24.67;;;18.80;;
41263;SDS011;26998;48.714;9.414;2024-01-30T08:39:17;29.13;;;19.63;;
41263;SDS011;26998;48.714;9.414;2024-01-30T08:41:45;27.03;;;19.17;;
41263;SDS011;26998;48.714;9.414;2024-01-30T08:44:12;28.25;;;19.08;;
41263;SDS011;26998;48.714;9.414;2024-01-30T08:46:40;25.73;;;18.73;;
41263;SDS011;26998;48.714;9.414;2024-01-30T08:49:07;28.92;;;18.60;;
41263;SDS011;26998;48.714;9.414;2024-01-30T08:51:35;24.17;;;18.92;;
41263;SDS011;26998;48.714;9.414;2024-01-30T08:54:04;23.88;;;18.17;;
41263;SDS011;26998;48.714;9.414;2024-01-30T08:56:31;26.27;;;18.50;;
41263;SDS011;26998;48.714;9.414;2024-01-30T08:58:59;24.80;;;18.88;;
41263;SDS011;26998;48.714;9.414;2024-01-30T09:01:26;25.27;;;18.77;;
41263;SDS011;26998;48.714;9.414;2024-01-30T09:03:56;24.55;;;18.00;;
41263;SDS011;26998;48.714;9.414;2024-01-30T09:06:23;21.85;;;16.88;;
41263;SDS011;26998;48.714;9.414;2024-01-30T09:08:53;24.48;;;18.02;;
41263;SDS011;26998;48.714;9.414;2024-01-30T09:11:21;22.47;;;16.70;;
41263;SDS011;26998;48.714;9.414;2024-01-30T09:13:49;21.73;;;16.98;;
41263;SDS011;26998;48.714;9.414;2024-01-30T09:16:15;24.67;;;16.80;;
41263;SDS011;26998;48.714;9.414;2024-01-30T09:18:43;22.98;;;17.08;;
41263;SDS011;26998;48.714;9.414;2024-01-30T09:21:10;21.73;;;15.55;;
41263;SDS011;26998;48.714;9.414;2024-01-30T09:23:37;29.48;;;20.13;;
41263;SDS011;26998;48.714;9.414;2024-01-30T09:26:04;26.70;;;18.05;;
41263;SDS011;26998;48.714;9.414;2024-01-30T09:28:30;22.83;;;16.23;;
41263;SDS011;26998;48.714;9.414;2024-01-30T09:30:58;20.48;;;14.90;;
41263;SDS011;26998;48.714;9.414;2024-01-30T09:33:25;20.27;;;14.88;;
41263;SDS011;26998;48.714;9.414;2024-01-30T09:35:52;19.52;;;13.88;;
41263;SDS011;26998;48.714;9.414;2024-01-30T09:38:19;20.60;;;14.63;;
41263;SDS011;26998;48.714;9.414;2024-01-30T09:40:48;24.45;;;15.35;;
41263;SDS011;26998;48.714;9.414;2024-01-30T09:43:22;19.38;;;14.73;;
41263;SDS011;26998;48.714;9.414;2024-01-30T09:45:53;23.02;;;14.85;;
41263;SDS011;26998;48.714;9.414;2024-01-30T09:48:20;23.97;;;14.70;;
41263;SDS011;26998;48.714;9.414;2024-01-30T09:50:50;21.48;;;13.85;;
41263;SDS011;26998;48.714;9.414;2024-01-30T09:53:24;19.10;;;13.30;;
41263;SDS011;26998;48.714;9.414;2024-01-30T09:55:56;21.85;;;14.95;;
41263;SDS011;26998;48.714;9.414;2024-01-30T09:58:44;23.37;;;14.90;;
41263;SDS011;26998;48.714;9.414;2024-01-30T10:01:11;19.02;;;13.63;;
41263;SDS011;26998;48.714;9.414;2024-01-30T10:03:39;23.17;;;15.07;;
41263;SDS011;26998;48.714;9.414;2024-01-30T10:06:06;17.92;;;13.52;;
41263;SDS011;26998;48.714;9.414;2024-01-30T10:08:35;19.98;;;14.45;;
41263;SDS011;26998;48.714;9.414;2024-01-30T10:11:01;22.98;;;15.88;;
41263;SDS011;26998;48.714;9.414;2024-01-30T10:13:29;18.40;;;12.88;;
41263;SDS011;26998;48.714;9.414;2024-01-30T10:15:56;20.42;;;15.30;;
41263;SDS011;26998;48.714;9.414;2024-01-30T10:18:24;20.85;;;14.50;;
41263;SDS011;26998;48.714;9.414;2024-01-30T10:20:51;20.08;;;14.93;;
41263;SDS011;26998;48.714;9.414;2024-01-30T10:23:18;17.17;;;13.20;;
41263;SDS011;26998;48.714;9.414;2024-01-30T10:25:45;16.67;;;12.52;;
41263;SDS011;26998;48.714;9.414;2024-01-30T10:28:13;15.25;;;11.43;;
41263;SDS011;26998;48.714;9.414;2024-01-30T10:30:40;18.43;;;11.63;;
41263;SDS011;26998;48.714;9.414;2024-01-30T10:33:06;17.60;;;12.90;;
41263;SDS011;26998;48.714;9.414;2024-01-30T10:35:34;20.85;;;12.85;;
41263;SDS011;26998;48.714;9.414;2024-01-30T10:38:01;17.73;;;12.03;;
41263;SDS011;26998;48.714;9.414;2024-01-30T10:40:28;26.63;;;17.38;;
41263;SDS011;26998;48.714;9.414;2024-01-30T10:42:57;25.85;;;16.30;;
41263;SDS011;26998;48.714;9.414;2024-01-30T10:45:32;32.47;;;19.38;;
41263;SDS011;26998;48.714;9.414;2024-01-30T10:48:02;49.10;;;24.30;;
41263;SDS011;26998;48.714;9.414;2024-01-30T10:50:31;42.27;;;23.37;;
41263;SDS011;26998;48.714;9.414;2024-01-30T10:53:02;23.83;;;16.25;;
41263;SDS011;26998;48.714;9.414;2024-01-30T10:55:30;22.43;;;14.53;;
41263;SDS011;26998;48.714;9.414;2024-01-30T10:57:58;18.13;;;12.02;;
41263;SDS011;26998;48.714;9.414;2024-01-30T11:00:26;20.35;;;11.07;;
41263;SDS011;26998;48.714;9.414;2024-01-30T11:02:54;19.00;;;10.10;;
41263;SDS011;26998;48.714;9.414;2024-01-30T11:05:25;23.23;;;12.73;;
41263;SDS011;26998;48.714;9.414;2024-01-30T11:07:59;18.63;;;10.52;;
41263;SDS011;26998;48.714;9.414;2024-01-30T11:10:44;21.03;;;12.67;;
41263;SDS011;26998;48.714;9.414;2024-01-30T11:13:13;16.73;;;10.30;;
41263;SDS011;26998;48.714;9.414;2024-01-30T11:15:40;13.90;;;9.43;;
41263;SDS011;26998;48.714;9.414;2024-01-30T11:18:07;17.52;;;10.73;;
41263;SDS011;26998;48.714;9.414;2024-01-30T11:20:36;14.73;;;10.32;;
41263;SDS011;26998;48.714;9.414;2024-01-30T11:23:03;13.27;;;9.17;;
41263;SDS011;26998;48.714;9.414;2024-01-30T11:25:33;12.13;;;10.27;;
41263;SDS011;26998;48.714;9.414;2024-01-30T11:28:00;13.50;;;9.23;;
41263;SDS011;26998;48.714;9.414;2024-01-30T11:30:32;13.52;;;10.00;;
41263;SDS011;26998;48.714;9.414;2024-01-30T11:35:40;14.88;;;9.68;;
41263;SDS011;26998;48.714;9.414;2024-01-30T11:38:13;14.38;;;9.82;;
41263;SDS011;26998;48.714;9.414;2024-01-30T11:40:42;14.88;;;10.88;;
41263;SDS011;26998;48.714;9.414;2024-01-30T11:43:10;12.50;;;10.32;;
41263;SDS011;26998;48.714;9.414;2024-01-30T11:45:42;14.43;;;10.60;;
41263;SDS011;26998;48.714;9.414;2024-01-30T11:48:13;13.77;;;9.38;;
41263;SDS011;26998;48.714;9.414;2024-01-30T11:50:41;13.45;;;9.73;;
41263;SDS011;26998;48.714;9.414;2024-01-30T11:53:14;13.07;;;9.33;;
41263;SDS011;26998;48.714;9.414;2024-01-30T11:55:42;13.45;;;9.88;;
41263;SDS011;26998;48.714;9.414;2024-01-30T11:58:24;11.70;;;9.15;;
41263;SDS011;26998;48.714;9.414;2024-01-30T12:00:52;16.13;;;9.93;;
41263;SDS011;26998;48.714;9.414;2024-01-30T12:03:23;13.32;;;9.20;;
41263;SDS011;26998;48.714;9.414;2024-01-30T12:05:54;13.40;;;9.00;;
41263;SDS011;26998;48.714;9.414;2024-01-30T12:08:23;11.77;;;9.30;;
41263;SDS011;26998;48.714;9.414;2024-01-30T12:10:55;23.63;;;14.63;;
41263;SDS011;26998;48.714;9.414;2024-01-30T12:13:28;12.85;;;9.68;;
41263;SDS011;26998;48.714;9.414;2024-01-30T12:15:59;13.60;;;9.18;;
41263;SDS011;26998;48.714;9.414;2024-01-30T12:18:28;11.73;;;9.13;;
41263;SDS011;26998;48.714;9.414;2024-01-30T12:20:58;15.13;;;9.60;;
41263;SDS011;26998;48.714;9.414;2024-01-30T12:23:29;13.40;;;9.80;;
41263;SDS011;26998;48.714;9.414;2024-01-30T12:25:58;16.25;;;11.25;;
41263;SDS011;26998;48.714;9.414;2024-01-30T12:28:26;12.85;;;9.90;;
41263;SDS011;26998;48.714;9.414;2024-01-30T12:30:56;14.23;;;9.95;;
41263;SDS011;26998;48.714;9.414;2024-01-30T12:33:28;14.15;;;9.98;;
41263;SDS011;26998;48.714;9.414;2024-01-30T12:35:56;13.77;;;10.77;;
41263;SDS011;26998;48.714;9.414;2024-01-30T12:38:29;16.23;;;9.77;;
41263;SDS011;26998;48.714;9.414;2024-01-30T12:40:57;12.32;;;8.88;;
41263;SDS011;26998;48.714;9.414;2024-01-30T12:43:29;12.25;;;9.80;;
41263;SDS011;26998;48.714;9.414;2024-01-30T12:46:05;12.65;;;9.65;;
41263;SDS011;26998;48.714;9.414;2024-01-30T12:48:33;11.10;;;8.82;;
41263;SDS011;26998;48.714;9.414;2024-01-30T12:51:00;11.32;;;8.90;;
41263;SDS011;26998;48.714;9.414;2024-01-30T12:53:28;10.95;;;7.97;;
41263;SDS011;26998;48.714;9.414;2024-01-30T12:55:55;9.13;;;7.77;;
41263;SDS011;26998;48.714;9.414;2024-01-30T12:58:22;12.10;;;9.68;;
41263;SDS011;26998;48.714;9.414;2024-01-30T13:00:51;9.73;;;7.78;;
41263;SDS011;26998;48.714;9.414;2024-01-30T13:03:22;10.90;;;7.70;;
41263;SDS011;26998;48.714;9.414;2024-01-30T13:05:52;10.30;;;7.65;;
41263;SDS011;26998;48.714;9.414;2024-01-30T13:08:19;9.40;;;7.63;;
41263;SDS011;26998;48.714;9.414;2024-01-30T13:10:46;10.60;;;8.45;;
41263;SDS011;26998;48.714;9.414;2024-01-30T13:13:15;9.95;;;8.75;;
41263;SDS011;26998;48.714;9.414;2024-01-30T13:15:46;15.40;;;10.00;;
41263;SDS011;26998;48.714;9.414;2024-01-30T13:18:14;11.52;;;9.23;;
41263;SDS011;26998;48.714;9.414;2024-01-30T13:20:42;12.75;;;9.30;;
41263;SDS011;26998;48.714;9.414;2024-01-30T13:23:09;13.07;;;9.20;;
41263;SDS011;26998;48.714;9.414;2024-01-30T13:25:36;10.07;;;7.50;;
41263;SDS011;26998;48.714;9.414;2024-01-30T13:28:03;10.15;;;8.50;;
41263;SDS011;26998;48.714;9.414;2024-01-30T13:30:33;10.40;;;7.63;;
41263;SDS011;26998;48.714;9.414;2024-01-30T13:33:01;10.75;;;8.23;;
41263;SDS011;26998;48.714;9.414;2024-01-30T13:35:29;13.15;;;8.95;;
41263;SDS011;26998;48.714;9.414;2024-01-30T13:37:56;9.57;;;7.83;;
41263;SDS011;26998;48.714;9.414;2024-01-30T13:40:24;10.68;;;8.55;;
41263;SDS011;26998;48.714;9.414;2024-01-30T13:42:51;8.65;;;7.22;;
41263;SDS011;26998;48.714;9.414;2024-01-30T13:45:18;9.63;;;7.78;;
41263;SDS011;26998;48.714;9.414;2024-01-30T13:47:47;14.43;;;9.57;;
41263;SDS011;26998;48.714;9.414;2024-01-30T13:50:14;14.85;;;9.43;;
41263;SDS011;26998;48.714;9.414;2024-01-30T13:52:43;10.00;;;8.05;;
41263;SDS011;26998;48.714;9.414;2024-01-30T13:55:11;10.88;;;8.90;;
41263;SDS011;26998;48.714;9.414;2024-01-30T13:57:39;12.40;;;8.57;;
41263;SDS011;26998;48.714;9.414;2024-01-30T14:00:06;12.20;;;9.30;;
41263;SDS011;26998;48.714;9.414;2024-01-30T14:02:36;12.95;;;8.75;;
41263;SDS011;26998;48.714;9.414;2024-01-30T14:05:03;12.38;;;8.20;;
41263;SDS011;26998;48.714;9.414;2024-01-30T14:07:35;12.00;;;8.43;;
41263;SDS011;26998;48.714;9.414;2024-01-30T14:10:06;11.60;;;8.00;;
41263;SDS011;26998;48.714;9.414;2024-01-30T14:12:38;11.70;;;8.18;;
41263;SDS011;26998;48.714;9.414;2024-01-30T14:15:06;12.43;;;8.27;;
41263;SDS011;26998;48.714;9.414;2024-01-30T14:17:49;13.25;;;8.25;;
41263;SDS011;26998;48.714;9.414;2024-01-30T14:20:16;13.55;;;8.20;;
41263;SDS011;26998;48.714;9.414;2024-01-30T14:22:43;9.30;;;7.33;;
41263;SDS011;26998;48.714;9.414;2024-01-30T14:25:10;8.52;;;6.22;;
41263;SDS011;26998;48.714;9.414;2024-01-30T14:27:39;7.53;;;6.20;;
41263;SDS011;26998;48.714;9.414;2024-01-30T14:30:06;8.00;;;6.18;;